Terminal Aerodrome Forecast
Issued by NWS Boston, MA

Home | Current Version | Previous Version | Text Only | Print | Product List | Glossary On
Versions: 1 2 3 4 5 6 7 8 9 10 11 12 13 14 15 16 17 18 19 20 21 22 23 24 25
000
FTUS41 KBOX 250536
TAFBDL
TAF
KBDL 250536Z 2506/2612 00000KT P6SM VCSH BKN100 OVC140
     FM251100 04006KT P6SM -RA OVC060
     FM251500 04010KT 3SM -RA OVC020
     FM252300 05010KT 1SM -RA BR OVC010
     FM260400 04008KT 3SM -RA BR OVC010
     FM261000 03008KT 3SM -RA BR OVC008=

USA.gov is the U.S. government's official web portal to all federal, state and local government web resources and services.